Aeroporto :
LOGIN :

Iscrizione | Disclaimer

   EN    FR    IT 

 










Sommario :    VFR   VFR Marginale   IFR   IFR Intensivo   IFR Molto Intensivo
Visibilità : 
Base nubi : 
>= 8 km
>= 3000ft
5 / 8 km
1000 / 3000 ft
1500m / 5 km
500 / 1000 ft
800 / 1500m
200 / 500 ft
< 800m
< 200 ft
Simboli :   Temporali  Nebbia  Neve Forte  Precipitazioni Forti  Vento > 20 kt
SIGMETs :   Varie  Temporali  Ghiacco  Turbolenza  Onda orograficha  Ceneri Vulcaniche







- Altitudine del aeroporto : 187 ft


ETNW - Wunstorf AB

ULTIMO METAR :
  • 202120Z 25006KT 9999 BKN020 10/06 Q1033 WHT

METARs OBSOLETI :
  • 202020Z 26006KT 9999 BKN022 10/06 Q1033 WHT
  • 201920Z 26006KT 9999 BKN028 10/06 Q1033 BLU
  • 201900Z 27007KT 9999 BKN030 10/05 Q1033 BLU FCST CANCEL

TAF TAF ETNW
Valido dal 20 a 18 ore il 21 a 18 ore UTC


201708Z 2018/2118 23010KT 9999 NSW SCT020 BKN040
TEMPO 2018/2103 24012KT 8000 NSW SCT010 BKN015
BECMG 2102/2104 23005KT 4000 BR SCT005 BKN010
PROB30 2104/2106 23002KT 2000 BR BKN004 BY ETGL
Nessun NOTAM noto per questo aeroporto.



MetMap, La meteo Aeronautica in un colpo d'occhio ! - Copyright ORBIFLY Dicembre 2007 - Disclaimer

ORBIFLY MET'MAP TEAM :

Programmazione e sviluppo : Alexandra Zaïnal
Concezione e sviluppo : Baudouin d'Aumeries
Co-Programmazione e sviluppo : Marc-Olivier Méhu
Supporto tecnico e logistico : Manuel Goepfert
Aiuto per la traduzione : Arnaldo La Scala

Contatto : metmap@orbifly.com




FONTI E CREDITI :

   NOAA